Time;durP1;ratioP1;P1;durP2;ratioP2;P2;SDS_P1;SDS_P2;PMS_P1;PMS_P2;Temp;Humidity;BMP_temperature;BMP_pressure;BME280_temperature;BME280_humidity;BME280_pressure;Samples;Min_cycle;Max_cycle;Signal;HPM_P1;HPM_P2
2021/03/31 00:01:53;;;;;;;4.20;2.67;;;;;;;15.15;30.47;98087.22;5053127;28;20126;-76
2021/03/31 00:04:18;;;;;;;4.65;2.75;;;;;;;15.19;30.13;98084.88;5104950;27;20019;-75
2021/03/31 00:06:44;;;;;;;6.25;3.10;;;;;;;15.26;30.10;98090.69;5095642;28;20114;-77
2021/03/31 00:09:09;;;;;;;4.18;2.22;;;;;;;15.28;30.44;98086.75;5107233;28;20038;-78
2021/03/31 00:11:35;;;;;;;4.80;2.33;;;;;;;15.34;30.46;98077.09;5082919;28;20081;-78
2021/03/31 00:14:00;;;;;;;4.80;2.38;;;;;;;15.32;30.73;98073.94;5089142;28;20027;-78
2021/03/31 00:16:25;;;;;;;5.20;2.83;;;;;;;15.31;30.81;98065.25;5099597;27;20023;-78
2021/03/31 00:18:51;;;;;;;6.75;3.00;;;;;;;15.31;30.92;98072.34;5092895;27;20046;-76
2021/03/31 00:21:17;;;;;;;7.28;2.55;;;;;;;15.30;30.58;98070.75;5129279;27;20031;-76
2021/03/31 00:23:42;;;;;;;4.57;2.80;;;;;;;15.38;30.68;98070.28;5101429;28;20024;-76
2021/03/31 00:26:08;;;;;;;3.72;2.20;;;;;;;15.34;31.03;98061.34;5090220;28;20027;-75
2021/03/31 00:28:33;;;;;;;4.78;3.10;;;;;;;15.28;31.18;98057.09;5091219;28;20024;-76
2021/03/31 00:30:59;;;;;;;3.90;2.65;;;;;;;15.28;31.50;98063.13;5087831;27;20039;-76
2021/03/31 00:33:24;;;;;;;7.03;3.58;;;;;;;15.33;30.99;98065.00;5113403;27;20047;-76
2021/03/31 00:35:50;;;;;;;4.72;2.80;;;;;;;15.34;31.16;98062.13;5094585;27;20058;-76
2021/03/31 00:38:16;;;;;;;5.32;2.38;;;;;;;15.36;30.92;98061.88;5091952;27;20039;-76
2021/03/31 00:40:47;;;;;;;6.13;2.63;;;;;;;15.25;31.04;98061.03;5114752;27;20358;-76
2021/03/31 00:43:13;;;;;;;7.13;2.75;;;;;;;15.36;31.24;98057.41;5095139;27;20557;-76
2021/03/31 00:45:39;;;;;;;4.60;3.08;;;;;;;15.37;31.47;98063.47;5083081;27;20122;-76
2021/03/31 00:48:05;;;;;;;6.18;2.90;;;;;;;15.34;31.32;98056.88;5113464;27;20482;-76
2021/03/31 00:50:30;;;;;;;3.60;2.50;;;;;;;15.33;31.41;98059.75;5063091;27;20026;-76
2021/03/31 00:52:58;;;;;;;4.55;2.67;;;;;;;15.22;31.52;98055.50;5089752;27;20028;-76
2021/03/31 00:55:27;;;;;;;4.78;3.00;;;;;;;15.12;31.90;98057.00;5096769;27;20493;-76
2021/03/31 00:57:53;;;;;;;6.57;3.00;;;;;;;15.15;31.71;98048.63;5080741;28;20182;-76
2021/03/31 01:00:20;;;;;;;4.10;2.60;;;;;;;15.08;32.35;98063.00;5060227;27;20526;-75
2021/03/31 01:02:46;;;;;;;4.35;2.95;;;;;;;14.92;32.24;98046.38;5079181;27;20031;-76
2021/03/31 01:05:33;;;;;;;4.72;2.55;;;;;;;14.74;32.75;98048.31;5100170;27;20505;-76
2021/03/31 01:07:58;;;;;;;4.45;2.70;;;;;;;14.70;32.65;98052.50;5099375;28;20071;-76
2021/03/31 01:10:27;;;;;;;5.03;2.95;;;;;;;14.61;33.15;98049.50;5093641;27;20068;-75
2021/03/31 01:13:29;;;;;;;4.75;2.97;;;;;;;14.27;33.85;98042.88;5094235;27;20034;-75
2021/03/31 01:16:32;;;;;;;5.10;2.70;;;;;;;14.09;33.97;98041.38;5086057;27;20084;-75
2021/03/31 01:19:09;;;;;;;5.45;3.10;;;;;;;14.29;33.51;98035.56;5105878;27;20038;-76
2021/03/31 01:21:56;;;;;;;7.53;3.50;;;;;;;13.87;34.24;98026.47;5132544;27;20122;-76
2021/03/31 01:24:40;;;;;;;5.18;2.85;;;;;;;13.90;34.20;98028.59;5096696;27;20031;-75
2021/03/31 01:27:47;;;;;;;6.40;2.70;;;;;;;13.99;34.09;98027.13;5109402;28;20277;-76
2021/03/31 01:30:33;;;;;;;5.88;2.45;;;;;;;13.95;34.71;98026.06;5096784;27;20034;-75
2021/03/31 01:33:13;;;;;;;3.95;2.13;;;;;;;13.95;34.95;98025.25;5095978;27;20035;-76
2021/03/31 01:35:40;;;;;;;7.40;3.58;;;;;;;14.05;34.92;98015.69;5091139;28;20039;-76
2021/03/31 01:38:06;;;;;;;6.35;3.35;;;;;;;14.09;34.60;98015.97;5092152;27;20028;-76
2021/03/31 01:40:36;;;;;;;3.50;2.70;;;;;;;13.97;35.33;98017.94;5091444;27;20031;-76
2021/03/31 01:43:05;;;;;;;3.72;2.72;;;;;;;13.97;35.55;98015.34;5104643;27;20035;-76
2021/03/31 01:45:32;;;;;;;3.78;2.38;;;;;;;13.97;36.06;98004.84;5079496;27;20031;-76
2021/03/31 01:48:00;;;;;;;4.10;2.53;;;;;;;13.91;35.63;97998.75;5104923;27;20540;-76
2021/03/31 01:50:25;;;;;;;5.65;2.58;;;;;;;13.88;36.02;98001.88;5112501;27;20031;-76
2021/03/31 01:52:51;;;;;;;5.30;2.70;;;;;;;13.77;35.75;98003.56;5086550;27;20035;-76
2021/03/31 01:55:17;;;;;;;5.70;2.70;;;;;;;13.69;36.60;98001.38;5070445;27;20058;-76
2021/03/31 01:57:44;;;;;;;4.78;3.00;;;;;;;13.70;35.95;98004.81;5078665;27;20487;-76
2021/03/31 02:00:14;;;;;;;4.88;2.67;;;;;;;13.68;36.15;97997.97;5070821;28;20595;-75
2021/03/31 02:02:43;;;;;;;6.13;3.08;;;;;;;13.66;36.41;97996.66;5076063;28;20043;-76
2021/03/31 02:05:10;;;;;;;5.50;3.05;;;;;;;13.71;36.26;97993.28;5100477;27;20050;-76
2021/03/31 02:07:38;;;;;;;5.78;2.97;;;;;;;13.71;36.46;98001.94;5083587;28;20019;-76
2021/03/31 02:10:03;;;;;;;4.25;2.60;;;;;;;13.71;36.56;97990.66;5104472;27;20043;-76
2021/03/31 02:12:32;;;;;;;5.32;2.63;;;;;;;13.51;37.26;97984.19;5109286;27;20042;-76
2021/03/31 02:14:58;;;;;;;5.05;2.72;;;;;;;13.36;37.70;97986.59;5109674;27;20061;-76
2021/03/31 02:17:26;;;;;;;4.80;2.70;;;;;;;13.23;38.55;97982.47;5094616;27;20020;-76
2021/03/31 02:19:53;;;;;;;4.93;2.70;;;;;;;13.18;38.83;97974.53;5079136;27;20038;-76
2021/03/31 02:22:20;;;;;;;4.60;2.42;;;;;;;13.23;39.13;97982.47;5105415;27;20035;-75
2021/03/31 02:24:46;;;;;;;5.82;2.90;;;;;;;13.09;39.36;97982.00;5092618;28;20487;-76
2021/03/31 02:27:12;;;;;;;15.10;3.30;;;;;;;12.97;39.68;97978.72;5075597;28;20015;-76
2021/03/31 02:29:39;;;;;;;3.78;2.60;;;;;;;12.98;39.47;97982.91;5092493;28;20066;-77
2021/03/31 02:32:05;;;;;;;5.18;2.58;;;;;;;12.98;39.61;97986.31;5073103;28;20028;-77
2021/03/31 02:34:31;;;;;;;4.13;2.40;;;;;;;12.99;39.67;97989.72;5080084;27;20053;-77
2021/03/31 02:36:58;;;;;;;5.45;2.60;;;;;;;12.82;39.59;97981.91;5078443;28;20053;-77
2021/03/31 02:39:24;;;;;;;4.30;2.40;;;;;;;12.63;40.10;97974.31;5113569;27;20041;-77
2021/03/31 02:41:51;;;;;;;4.03;2.13;;;;;;;12.49;39.86;97973.00;5104986;28;20055;-77
2021/03/31 02:44:18;;;;;;;5.38;2.72;;;;;;;12.51;39.52;97973.59;5097202;27;20343;-77
2021/03/31 02:46:49;;;;;;;5.05;2.65;;;;;;;12.51;40.05;97969.16;5104829;28;20367;-78
2021/03/31 02:49:15;;;;;;;5.15;2.53;;;;;;;12.55;39.59;97978.09;5108358;27;20027;-77
2021/03/31 02:51:41;;;;;;;3.55;2.35;;;;;;;12.51;40.19;97974.38;5084732;27;20055;-77
2021/03/31 02:54:08;;;;;;;4.60;2.60;;;;;;;12.48;39.69;97982.69;5094576;28;20023;-77
2021/03/31 02:56:34;;;;;;;3.97;2.08;;;;;;;12.58;39.21;97968.19;5097708;28;20648;-77
2021/03/31 02:59:02;;;;;;;5.32;2.42;;;;;;;12.53;38.93;97969.69;5083995;28;20047;-77
2021/03/31 03:01:27;;;;;;;3.83;2.20;;;;;;;12.63;39.22;97963.03;5086970;28;20427;-75
2021/03/31 03:03:55;;;;;;;4.45;2.47;;;;;;;12.58;38.12;97969.00;5091925;28;20054;-76
2021/03/31 03:06:22;;;;;;;4.63;2.17;;;;;;;12.70;38.57;97958.47;5098931;28;20055;-76
2021/03/31 03:08:47;;;;;;;4.22;2.53;;;;;;;12.77;38.96;97968.75;5082987;28;20121;-75
2021/03/31 03:11:13;;;;;;;5.15;2.13;;;;;;;12.63;38.86;97965.66;5117452;27;20051;-75
2021/03/31 03:13:40;;;;;;;5.35;2.33;;;;;;;12.48;38.52;97961.78;5104292;27;20031;-75
2021/03/31 03:16:06;;;;;;;4.40;2.03;;;;;;;12.62;38.05;97956.25;5094713;27;20035;-76
2021/03/31 03:18:31;;;;;;;5.65;2.17;;;;;;;12.66;37.74;97954.72;5093755;27;20034;-75
2021/03/31 03:20:56;;;;;;;3.95;2.67;;;;;;;12.67;38.51;97949.28;5129874;27;20038;-75
2021/03/31 03:23:22;;;;;;;3.55;2.15;;;;;;;12.70;38.38;97951.41;5103806;27;20107;-76
2021/03/31 03:25:48;;;;;;;4.18;1.92;;;;;;;12.69;38.94;97959.50;5094132;27;20023;-75
2021/03/31 03:28:18;;;;;;;5.10;2.30;;;;;;;12.52;38.70;97957.66;5063989;27;20020;-76
2021/03/31 03:30:44;;;;;;;4.50;2.70;;;;;;;12.51;39.39;97950.88;5105037;27;20031;-76
2021/03/31 03:33:10;;;;;;;4.72;2.45;;;;;;;12.44;38.77;97946.81;5087023;27;20126;-76
2021/03/31 03:35:35;;;;;;;3.05;1.80;;;;;;;12.42;38.64;97947.03;5092330;27;20134;-75
2021/03/31 03:38:01;;;;;;;5.32;2.78;;;;;;;12.45;38.99;97951.81;5105034;27;20043;-77
2021/03/31 03:40:27;;;;;;;4.75;2.25;;;;;;;12.38;38.87;97948.56;5089349;28;20028;-77
2021/03/31 03:42:53;;;;;;;2.63;1.75;;;;;;;12.34;39.53;97935.19;5108646;28;20436;-77
2021/03/31 03:45:21;;;;;;;3.40;2.08;;;;;;;12.23;40.14;97940.47;5108554;28;20054;-75
2021/03/31 03:47:47;;;;;;;3.30;1.90;;;;;;;12.33;39.90;97932.81;5116521;27;20062;-76
2021/03/31 03:50:14;;;;;;;4.68;2.30;;;;;;;12.33;39.68;97935.41;5090057;28;20063;-76
2021/03/31 03:52:41;;;;;;;5.50;2.40;;;;;;;12.31;39.50;97930.44;5103610;27;20023;-75
2021/03/31 03:55:07;;;;;;;5.63;2.63;;;;;;;12.35;40.26;97942.00;5084927;28;20478;-75
2021/03/31 03:57:33;;;;;;;5.38;2.10;;;;;;;12.23;40.62;97938.66;5093448;28;20087;-75
2021/03/31 03:59:58;;;;;;;6.45;2.38;;;;;;;12.09;40.85;97932.16;5079889;27;20031;-75
2021/03/31 04:02:24;;;;;;;5.18;2.22;;;;;;;12.14;40.52;97946.06;5099605;28;20039;-75
2021/03/31 04:04:49;;;;;;;4.68;2.88;;;;;;;12.18;40.09;97941.97;5091492;28;20566;-75
2021/03/31 04:07:15;;;;;;;4.97;3.13;;;;;;;12.12;40.13;97940.31;5097304;28;20023;-76
2021/03/31 04:09:43;;;;;;;4.00;1.90;;;;;;;12.01;40.17;97941.13;5084796;28;20054;-76
2021/03/31 04:12:09;;;;;;;4.60;2.35;;;;;;;12.06;40.19;97937.84;5073552;28;20046;-76
2021/03/31 04:14:37;;;;;;;5.78;2.42;;;;;;;11.92;40.75;97937.34;5089289;28;20477;-75
2021/03/31 04:17:04;;;;;;;6.05;2.70;;;;;;;12.06;40.50;97935.22;5070224;28;20106;-76
2021/03/31 04:19:32;;;;;;;5.18;2.30;;;;;;;12.05;39.86;97926.59;5102001;28;20036;-77
2021/03/31 04:21:57;;;;;;;4.30;2.58;;;;;;;12.04;40.33;97932.84;5093216;28;20122;-77
2021/03/31 04:24:23;;;;;;;4.03;2.00;;;;;;;12.01;40.71;97929.91;5086822;28;20030;-75
2021/03/31 04:26:50;;;;;;;3.83;1.98;;;;;;;11.94;40.51;97928.25;5107584;28;20377;-76
2021/03/31 04:29:16;;;;;;;3.95;2.28;;;;;;;12.02;39.86;97934.91;5107716;28;20062;-76
2021/03/31 04:31:41;;;;;;;4.30;2.25;;;;;;;12.03;39.86;97922.63;5090548;28;20066;-76
2021/03/31 04:34:08;;;;;;;3.58;2.00;;;;;;;12.03;39.72;97927.84;5065504;28;20035;-75
2021/03/31 04:36:34;;;;;;;2.85;1.85;;;;;;;12.09;39.87;97927.72;5102958;28;20036;-75
2021/03/31 04:39:02;;;;;;;5.43;2.38;;;;;;;12.14;39.36;97924.41;5074727;28;20397;-77
2021/03/31 04:41:27;;;;;;;4.15;2.10;;;;;;;12.13;39.52;97928.84;5115000;28;20100;-77
2021/03/31 04:43:53;;;;;;;4.53;2.20;;;;;;;12.11;39.50;97928.25;5097250;28;20495;-77
2021/03/31 04:46:18;;;;;;;3.95;2.25;;;;;;;12.12;39.66;97931.69;5100660;28;20359;-77
2021/03/31 04:48:43;;;;;;;5.38;2.60;;;;;;;12.04;39.93;97929.44;5102561;28;20035;-77
2021/03/31 04:51:09;;;;;;;4.70;2.70;;;;;;;12.03;39.83;97928.66;5094466;28;20264;-77
2021/03/31 04:53:34;;;;;;;4.30;2.45;;;;;;;12.03;39.92;97927.84;5077243;28;20810;-77
2021/03/31 04:56:00;;;;;;;3.97;2.28;;;;;;;11.96;40.58;97931.41;5090820;28;20110;-77
2021/03/31 04:58:26;;;;;;;2.72;1.95;;;;;;;11.92;41.28;97927.69;5101232;28;20543;-77
2021/03/31 05:00:52;;;;;;;4.63;2.30;;;;;;;11.95;41.21;97926.44;5102921;28;20122;-77
2021/03/31 05:03:17;;;;;;;3.92;2.10;;;;;;;11.91;42.03;97930.53;5113235;28;20386;-77
2021/03/31 05:05:42;;;;;;;5.00;1.95;;;;;;;11.95;42.47;97921.22;5123514;27;20023;-77
2021/03/31 05:08:08;;;;;;;6.53;2.60;;;;;;;11.94;42.09;97925.66;5116678;27;20050;-77
2021/03/31 05:10:34;;;;;;;5.32;3.67;;;;;;;11.70;41.60;97922.28;5091064;27;20027;-77
2021/03/31 05:13:00;;;;;;;5.72;3.65;;;;;;;11.67;42.20;97921.97;5093463;27;20023;-77
2021/03/31 05:15:25;;;;;;;4.75;3.40;;;;;;;11.60;42.32;97925.53;5081978;28;20360;-77
2021/03/31 05:17:50;;;;;;;4.65;3.10;;;;;;;11.53;42.39;97927.47;5088777;28;20081;-77
2021/03/31 05:20:16;;;;;;;6.20;3.13;;;;;;;11.41;43.09;97932.72;5122034;27;20067;-77
2021/03/31 05:22:42;;;;;;;5.35;3.10;;;;;;;11.39;43.35;97929.53;5092934;28;20540;-77
2021/03/31 05:25:08;;;;;;;4.47;2.80;;;;;;;11.35;43.63;97931.03;5073016;27;20031;-77
2021/03/31 05:27:34;;;;;;;4.72;3.08;;;;;;;11.30;43.97;97930.91;5104158;27;20076;-77
2021/03/31 05:30:00;;;;;;;6.15;2.45;;;;;;;11.21;43.92;97927.09;5117235;27;20132;-77
2021/03/31 05:32:25;;;;;;;4.82;2.53;;;;;;;11.23;45.07;97927.66;5090516;27;20050;-77
2021/03/31 05:34:51;;;;;;;5.38;2.60;;;;;;;11.20;44.25;97920.28;5112607;27;20170;-77
2021/03/31 05:37:17;;;;;;;4.10;2.38;;;;;;;11.29;43.63;97923.31;5095821;28;20115;-77
2021/03/31 05:39:42;;;;;;;4.10;2.30;;;;;;;11.33;43.92;97925.25;5083114;27;20051;-77
2021/03/31 05:42:08;;;;;;;3.78;2.33;;;;;;;11.46;43.19;97918.19;5100053;28;20031;-77
2021/03/31 05:44:34;;;;;;;5.32;3.20;;;;;;;11.63;43.10;97921.63;5111894;27;20058;-77
2021/03/31 05:47:00;;;;;;;4.57;2.92;;;;;;;11.67;43.64;97924.56;5080044;27;20015;-77
2021/03/31 05:49:26;;;;;;;5.15;3.20;;;;;;;11.78;42.58;97913.31;5087126;27;20029;-77
2021/03/31 05:51:51;;;;;;;6.30;3.63;;;;;;;11.91;43.54;97920.06;5090108;28;20031;-77
2021/03/31 05:54:17;;;;;;;11.68;5.38;;;;;;;12.09;42.34;97917.28;5114241;28;20039;-77
2021/03/31 05:56:43;;;;;;;9.85;5.97;;;;;;;12.26;40.55;97919.13;5097055;28;20093;-77
2021/03/31 05:59:09;;;;;;;8.18;4.85;;;;;;;12.44;39.90;97923.31;5089501;28;20063;-77
2021/03/31 06:01:37;;;;;;;5.90;3.85;;;;;;;12.44;39.82;97924.13;5080079;28;20081;-77
2021/03/31 06:04:03;;;;;;;7.25;3.40;;;;;;;12.66;39.34;97921.59;5080551;28;20036;-77
2021/03/31 06:06:29;;;;;;;8.05;3.72;;;;;;;12.71;39.37;97919.03;5113870;27;20521;-77
2021/03/31 06:08:55;;;;;;;5.57;3.85;;;;;;;12.95;39.35;97925.88;5095423;27;20439;-77
2021/03/31 06:11:21;;;;;;;5.18;1.92;;;;;;;13.01;39.38;97917.09;5101550;28;20301;-77
2021/03/31 06:13:52;;;;;;;5.10;2.28;;;;;;;13.02;40.28;97926.50;5081339;27;20019;-77
2021/03/31 06:16:37;;;;;;;6.63;3.88;;;;;;;13.09;42.12;97919.25;5077206;27;20059;-77
2021/03/31 06:19:19;;;;;;;11.13;5.53;;;;;;;13.34;42.41;97925.91;5091479;27;20023;-77
2021/03/31 06:22:05;;;;;;;6.07;3.10;;;;;;;13.57;40.79;97930.88;5116606;27;21090;-78
2021/03/31 06:24:33;;;;;;;4.20;2.70;;;;;;;14.01;39.20;97930.78;5104721;27;20478;-77
2021/03/31 06:26:59;;;;;;;3.58;2.10;;;;;;;14.04;38.71;97932.13;5079332;27;20028;-78
2021/03/31 06:29:35;;;;;;;3.55;1.80;;;;;;;13.84;38.59;97937.97;5099869;27;20027;-76
2021/03/31 06:32:13;;;;;;;3.42;2.10;;;;;;;14.07;37.49;97939.50;5072062;28;20040;-76
2021/03/31 06:34:50;;;;;;;4.97;1.95;;;;;;;14.14;37.77;97940.09;5091855;27;20079;-77
2021/03/31 06:37:27;;;;;;;4.32;2.00;;;;;;;14.32;36.49;97936.31;5100164;27;20040;-78
2021/03/31 06:39:54;;;;;;;3.08;2.00;;;;;;;14.71;35.94;97937.94;5086030;27;20052;-77
2021/03/31 06:42:23;;;;;;;3.65;2.22;;;;;;;14.81;36.10;97942.47;5117812;27;20498;-76
2021/03/31 06:50:11;;;;;;;3.67;1.63;;;;;;;15.28;34.99;97941.66;5108729;27;20058;-78
2021/03/31 06:52:56;;;;;;;3.20;1.80;;;;;;;15.32;35.43;97942.75;5086971;27;20468;-76
2021/03/31 06:55:23;;;;;;;2.63;1.50;;;;;;;15.89;35.38;97935.88;5084899;27;20538;-76
2021/03/31 06:57:56;;;;;;;4.00;1.80;;;;;;;15.96;36.08;97941.66;5085198;27;20031;-76
2021/03/31 07:00:26;;;;;;;4.30;1.80;;;;;;;16.21;35.62;97938.28;5077389;27;20452;-76
2021/03/31 07:02:53;;;;;;;3.78;2.30;;;;;;;16.62;35.40;97932.22;5110370;27;20027;-76
2021/03/31 07:05:18;;;;;;;2.22;1.92;;;;;;;16.94;34.99;97933.78;5110505;27;20109;-76
2021/03/31 07:07:44;;;;;;;4.93;2.22;;;;;;;17.27;34.87;97926.31;5100900;27;20426;-76
2021/03/31 07:10:15;;;;;;;4.75;2.20;;;;;;;17.41;34.91;97933.38;5060774;27;20027;-76
2021/03/31 07:12:45;;;;;;;3.45;2.17;;;;;;;17.83;35.20;97927.91;5077009;27;20034;-76
2021/03/31 07:15:12;;;;;;;4.95;2.75;;;;;;;17.98;35.59;97934.97;5109491;27;20067;-76
2021/03/31 07:17:41;;;;;;;6.60;3.67;;;;;;;18.21;35.17;97934.25;5072881;27;20126;-76
2021/03/31 07:20:08;;;;;;;5.50;3.30;;;;;;;18.69;33.05;97925.69;5057560;27;20448;-76
2021/03/31 07:22:34;;;;;;;5.22;2.80;;;;;;;18.96;29.88;97924.41;5077467;27;20586;-76
2021/03/31 07:25:01;;;;;;;4.50;3.08;;;;;;;19.23;29.11;97932.53;5062730;27;20032;-75
2021/03/31 07:27:26;;;;;;;6.53;3.10;;;;;;;19.40;28.05;97923.38;5093630;27;20406;-75
2021/03/31 07:32:58;;;;;;;8.57;4.05;;;;;;;19.88;27.25;97931.22;5052903;27;20047;-75
2021/03/31 07:35:29;;;;;;;5.70;3.63;;;;;;;19.97;26.42;97924.19;5092956;27;20053;-75
2021/03/31 07:38:00;;;;;;;6.05;3.60;;;;;;;20.30;26.12;97929.50;5076400;27;20096;-75
2021/03/31 07:40:26;;;;;;;9.48;4.32;;;;;;;20.69;25.32;97923.06;5087676;27;20541;-75
2021/03/31 07:43:14;;;;;;;7.25;4.38;;;;;;;20.62;25.80;97927.97;5104788;28;20037;-76
2021/03/31 07:45:57;;;;;;;6.47;3.55;;;;;;;20.67;26.15;97927.88;5067940;28;20082;-75
2021/03/31 07:48:24;;;;;;;8.85;3.42;;;;;;;21.36;25.34;97929.75;5105180;28;20432;-75
2021/03/31 07:50:49;;;;;;;6.53;3.78;;;;;;;21.74;25.21;97929.53;5101149;28;20023;-75
2021/03/31 07:53:15;;;;;;;4.38;3.28;;;;;;;22.13;24.96;97930.78;5071156;27;20038;-75
2021/03/31 07:55:50;;;;;;;7.10;4.10;;;;;;;22.05;24.82;97929.63;5088716;27;20027;-75
2021/03/31 07:58:30;;;;;;;5.80;3.17;;;;;;;21.91;25.25;97925.47;5075358;28;20091;-75
2021/03/31 08:01:01;;;;;;;5.45;3.40;;;;;;;22.45;24.79;97936.97;5097972;27;20034;-75
2021/03/31 08:03:31;;;;;;;5.97;3.33;;;;;;;22.64;24.72;97926.13;5069838;28;20034;-75
2021/03/31 08:06:05;;;;;;;10.23;3.28;;;;;;;22.68;24.77;97932.38;5053467;28;20513;-75
2021/03/31 08:08:51;;;;;;;5.32;3.40;;;;;;;22.68;24.93;97929.72;5078272;27;20030;-75
2021/03/31 08:11:38;;;;;;;5.32;3.42;;;;;;;22.75;24.61;97929.28;5085449;28;20051;-75
2021/03/31 08:14:05;;;;;;;5.55;3.22;;;;;;;23.37;24.07;97929.22;5091489;28;20125;-75
2021/03/31 08:16:37;;;;;;;7.75;4.38;;;;;;;23.74;24.03;97934.28;5087484;28;20365;-75
2021/03/31 08:19:05;;;;;;;5.10;3.30;;;;;;;23.74;23.75;97927.06;5086044;28;20067;-76
2021/03/31 08:21:32;;;;;;;6.88;3.70;;;;;;;24.03;23.46;97919.63;5107259;28;20050;-75
2021/03/31 08:23:58;;;;;;;9.45;4.18;;;;;;;24.07;23.43;97923.19;5092065;28;20042;-75
2021/03/31 08:26:32;;;;;;;6.78;3.47;;;;;;;24.17;23.04;97930.09;5127017;28;20033;-76
2021/03/31 08:29:01;;;;;;;5.60;3.85;;;;;;;24.47;22.86;97926.44;5121871;28;20039;-79
2021/03/31 08:31:28;;;;;;;6.50;3.88;;;;;;;24.84;22.62;97920.69;5077223;28;20058;-78
2021/03/31 08:33:54;;;;;;;9.80;4.38;;;;;;;25.20;21.02;97922.88;5093895;28;20092;-78
2021/03/31 08:36:20;;;;;;;6.05;3.33;;;;;;;25.75;21.31;97929.13;5106335;28;20027;-78
2021/03/31 08:38:52;;;;;;;5.40;3.70;;;;;;;25.49;21.72;97918.66;5090149;27;20039;-76
2021/03/31 08:41:22;;;;;;;7.43;4.00;;;;;;;25.67;21.02;97922.00;5110307;27;20032;-76
2021/03/31 08:43:49;;;;;;;5.25;3.55;;;;;;;25.86;20.61;97924.19;5111152;27;20031;-75
2021/03/31 08:46:31;;;;;;;7.18;4.30;;;;;;;25.60;21.19;97916.38;5095737;27;20031;-75
2021/03/31 08:48:56;;;;;;;4.82;3.60;;;;;;;25.79;21.42;97923.94;5094684;27;20023;-75
2021/03/31 08:51:22;;;;;;;6.60;3.92;;;;;;;25.94;21.17;97919.88;5077018;27;20027;-75
2021/03/31 08:53:48;;;;;;;7.43;3.78;;;;;;;26.21;20.97;97913.22;5076734;27;20027;-75
2021/03/31 08:56:21;;;;;;;6.25;3.20;;;;;;;26.30;20.31;97907.81;5104947;27;20043;-76
2021/03/31 08:58:49;;;;;;;6.38;3.40;;;;;;;26.75;20.54;97914.25;5063359;28;20038;-76
2021/03/31 09:01:24;;;;;;;7.03;3.25;;;;;;;26.64;20.26;97911.25;5108908;28;20079;-75
2021/03/31 09:03:49;;;;;;;7.05;3.00;;;;;;;27.41;19.42;97914.03;5087597;28;20055;-76
2021/03/31 09:06:16;;;;;;;6.20;3.65;;;;;;;27.31;19.76;97916.41;5104922;27;20497;-76
2021/03/31 09:08:42;;;;;;;5.65;3.38;;;;;;;27.55;20.58;97912.91;5074503;28;20032;-76
2021/03/31 09:11:08;;;;;;;5.00;3.08;;;;;;;27.63;20.08;97910.09;5103582;28;20088;-76
2021/03/31 09:13:35;;;;;;;5.60;2.90;;;;;;;27.57;19.56;97916.00;5110703;27;20027;-76
2021/03/31 09:16:03;;;;;;;4.32;2.95;;;;;;;27.90;19.33;97917.69;5094166;27;20485;-76
2021/03/31 09:18:29;;;;;;;5.35;2.92;;;;;;;27.81;19.51;97910.59;5097694;27;20042;-76
2021/03/31 09:20:55;;;;;;;5.47;2.60;;;;;;;27.90;19.64;97905.09;5094765;27;20031;-76
2021/03/31 09:23:24;;;;;;;4.57;2.95;;;;;;;28.23;19.36;97914.03;5111422;27;20479;-76
2021/03/31 09:25:58;;;;;;;5.22;2.83;;;;;;;28.20;19.75;97897.50;5111240;27;20059;-75
2021/03/31 09:28:23;;;;;;;5.15;2.80;;;;;;;28.62;18.08;97904.34;5110351;27;20513;-76
2021/03/31 09:30:52;;;;;;;3.85;2.50;;;;;;;28.49;20.36;97900.91;5111472;27;20020;-76
2021/03/31 09:33:25;;;;;;;5.10;2.90;;;;;;;28.70;17.74;97899.91;5108196;28;20069;-76
2021/03/31 09:35:51;;;;;;;3.95;2.47;;;;;;;28.85;17.78;97901.03;5091368;28;20035;-76
2021/03/31 09:38:25;;;;;;;5.18;2.72;;;;;;;28.72;17.64;97905.69;5093717;27;20039;-76
2021/03/31 09:41:01;;;;;;;6.60;2.75;;;;;;;28.72;17.71;97900.34;5111476;27;20024;-76
2021/03/31 09:43:26;;;;;;;4.05;2.85;;;;;;;28.98;17.25;97894.44;5106973;27;20027;-76
2021/03/31 09:45:53;;;;;;;5.38;3.03;;;;;;;28.94;16.20;97897.06;5093584;27;20389;-76
2021/03/31 09:48:18;;;;;;;6.38;2.90;;;;;;;29.14;16.81;97883.69;5096716;28;20506;-76
2021/03/31 09:50:44;;;;;;;5.50;3.58;;;;;;;29.37;16.22;97886.50;5066073;27;20063;-76
2021/03/31 09:53:09;;;;;;;4.93;2.88;;;;;;;29.38;16.71;97880.03;5082664;28;20165;-76
2021/03/31 09:55:37;;;;;;;4.55;3.20;;;;;;;29.30;17.32;97884.47;5091549;27;20042;-76
2021/03/31 09:58:02;;;;;;;4.80;3.40;;;;;;;29.36;16.99;97878.81;5073649;28;20561;-76
2021/03/31 10:00:28;;;;;;;5.82;3.30;;;;;;;29.70;16.78;97879.91;5103255;28;20094;-76
2021/03/31 10:02:55;;;;;;;4.53;3.60;;;;;;;29.98;16.13;97887.75;5102644;27;20027;-76
2021/03/31 10:05:22;;;;;;;4.57;3.15;;;;;;;30.28;16.89;97875.59;5094084;28;20047;-76
2021/03/31 10:08:06;;;;;;;4.78;3.13;;;;;;;29.76;16.93;97875.81;5087184;27;20019;-76
2021/03/31 10:10:44;;;;;;;6.07;3.08;;;;;;;29.99;17.17;97880.44;5088600;28;20028;-76
2021/03/31 10:13:15;;;;;;;5.88;3.40;;;;;;;30.24;17.06;97860.19;5121009;27;20030;-76
2021/03/31 10:16:05;;;;;;;6.57;3.40;;;;;;;30.08;16.65;97869.50;5110461;27;20027;-77
2021/03/31 10:18:35;;;;;;;7.20;3.97;;;;;;;30.11;17.18;97858.03;5090114;28;20040;-76
2021/03/31 10:21:22;;;;;;;5.00;3.10;;;;;;;30.19;16.59;97863.16;5091610;27;20481;-76
2021/03/31 10:23:49;;;;;;;6.28;3.13;;;;;;;30.32;17.14;97853.03;5078460;27;20039;-76
2021/03/31 10:26:17;;;;;;;6.28;3.75;;;;;;;30.54;16.94;97856.13;5104727;27;20027;-76
2021/03/31 10:28:42;;;;;;;5.65;3.72;;;;;;;30.75;17.01;97856.44;5084310;28;20407;-76
2021/03/31 10:31:24;;;;;;;7.03;3.97;;;;;;;30.65;15.83;97859.72;5109902;27;20034;-76
2021/03/31 10:33:50;;;;;;;4.72;3.28;;;;;;;30.78;16.45;97857.63;5110261;27;20137;-76
2021/03/31 10:49:06;;;;;;;5.40;3.07;;;;;;;30.83;15.72;97843.09;5118065;27;20027;-76
2021/03/31 10:53:52;;;;;;;6.00;3.45;;;;;;;30.90;16.10;97841.28;5103660;27;20029;-76
2021/03/31 10:56:18;;;;;;;5.28;3.47;;;;;;;31.20;15.26;97831.72;5092856;27;20474;-76
2021/03/31 10:58:43;;;;;;;4.50;3.25;;;;;;;31.26;14.51;97833.72;5075542;28;20035;-76
2021/03/31 11:01:09;;;;;;;5.05;3.22;;;;;;;31.41;14.94;97829.28;5074534;27;20480;-76
2021/03/31 11:03:36;;;;;;;7.78;3.42;;;;;;;30.85;15.82;97827.38;5109907;27;20066;-76
2021/03/31 11:06:02;;;;;;;4.13;3.13;;;;;;;31.39;14.97;97823.47;5105949;27;20039;-76
2021/03/31 11:08:28;;;;;;;5.18;3.45;;;;;;;31.49;16.04;97817.44;5091405;27;20019;-76
2021/03/31 11:10:53;;;;;;;4.97;3.08;;;;;;;32.06;15.22;97822.72;5127990;27;20058;-76
2021/03/31 11:13:18;;;;;;;6.18;3.47;;;;;;;32.20;15.59;97813.19;5100129;27;20343;-76
2021/03/31 11:15:45;;;;;;;4.10;2.90;;;;;;;32.21;15.69;97812.06;5123872;27;20221;-76
2021/03/31 11:18:19;;;;;;;5.35;2.92;;;;;;;32.63;14.91;97810.88;5096877;27;20111;-76
2021/03/31 11:25:59;;;;;;;5.07;3.10;;;;;;;33.32;12.96;97806.59;5112747;27;20027;-76
2021/03/31 11:28:25;;;;;;;4.50;3.00;;;;;;;33.30;14.61;97806.22;5109191;27;20027;-76
2021/03/31 11:30:51;;;;;;;4.45;3.03;;;;;;;33.64;13.62;97811.31;5092202;27;20031;-76
2021/03/31 11:33:18;;;;;;;3.67;3.35;;;;;;;33.52;13.77;97801.63;5109371;27;20035;-76
2021/03/31 11:35:44;;;;;;;3.70;2.75;;;;;;;33.52;14.50;97799.72;5089023;28;20082;-76
2021/03/31 11:38:10;;;;;;;4.55;2.67;;;;;;;33.78;13.55;97795.94;5087118;27;20043;-76
2021/03/31 11:40:36;;;;;;;3.83;2.60;;;;;;;33.32;13.87;97796.56;5080838;27;20101;-76
2021/03/31 11:43:02;;;;;;;4.22;2.80;;;;;;;33.72;14.03;97783.19;5080749;27;20410;-77
2021/03/31 11:45:27;;;;;;;2.75;2.47;;;;;;;33.61;14.69;97790.50;5105167;27;20035;-76
2021/03/31 11:47:53;;;;;;;5.72;3.03;;;;;;;33.56;15.35;97781.59;5100099;27;20051;-76
2021/03/31 11:50:19;;;;;;;3.40;3.10;;;;;;;33.85;13.96;97780.91;5119991;27;20076;-76
2021/03/31 11:52:44;;;;;;;3.90;3.13;;;;;;;33.83;14.74;97778.59;5097335;27;20063;-76
2021/03/31 11:55:10;;;;;;;4.20;3.03;;;;;;;33.99;12.27;97783.63;5091170;27;20534;-76
2021/03/31 11:57:35;;;;;;;4.78;2.95;;;;;;;33.70;13.60;97777.41;5098735;27;20355;-76
2021/03/31 12:00:01;;;;;;;4.43;3.13;;;;;;;33.23;13.39;97771.88;5098878;27;20027;-76
2021/03/31 12:02:27;;;;;;;4.20;3.08;;;;;;;32.99;13.04;97771.38;5080508;27;20027;-76
2021/03/31 12:04:53;;;;;;;4.20;2.80;;;;;;;32.88;13.50;97767.84;5094495;28;20391;-77
2021/03/31 12:07:19;;;;;;;4.22;2.88;;;;;;;32.63;13.48;97760.41;5089828;28;20024;-76
2021/03/31 12:09:45;;;;;;;4.13;2.30;;;;;;;32.02;15.23;97761.84;5094607;28;20035;-76